• Join FlightAware (Why Join?)
  • Login
  • US Flag 
10:17AM EST


 

Airport Tracker/Info


-or-


 

Live Flight TrackerFlight Track Log ✈ N8377L ✈ 2013年 05月 19日 ✈ KPSC - KTIW

Flight Track Log - Related Links

Times and Time Zones

All times are in EDT time to prevent confusion due to time zone crossing. See the N8377L flight status page for this flight to view local times or setup timezone preferences in your user account.

Time Position Orientation Groundspeed Altitude Reporting Facility
EDT Latitude Longitude Course Direction KTS MPH feet Rate Location/Type
04:42PM 46.2969 -119.2919 284° West 109 125 4,400  Level Seattle Center
04:43PM 46.3125 -119.3303 300° West 111 128 5,200 720 Climbing Seattle Center
04:44PM 46.3247 -119.3987 290° West  Level FlightAware Approximate
04:44PM 46.3247 -119.3750 292° West 120 138 5,900  Level Seattle Center
04:45PM 46.3333 -119.4469 270° West  Level FlightAware Approximate
04:45PM 46.3358 -119.4203 290° West 119 137 6,600  Level Seattle Center
04:46PM 46.3410 -119.4959 284° West  Level FlightAware Approximate
04:46PM 46.3461 -119.4656 288° West 120 138 7,100  Level Seattle Center
04:47PM 46.3492 -119.5449 284° West  Level FlightAware Approximate
04:47PM 46.3553 -119.5108 286° West 118 136 7,600  Level Seattle Center
04:48PM 46.3644 -119.5558 286° West 116 133 8,000 420 Climbing Seattle Center
04:49PM 46.3747 -119.6031 288° West 121 139 8,500 540 Climbing Seattle Center
04:50PM 46.3892 -119.6633 289° West 130 150 9,200 660 Climbing Seattle Center
04:51PM 46.4014 -119.7114 290° West 128 147 9,900 600 Climbing Seattle Center
04:52PM 46.4119 -119.7617 287° West 131 151 10,500 540 Climbing Seattle Center
04:53PM 46.4225 -119.8131 287° West 134 154 11,000 480 Climbing Seattle Center
04:54PM 46.4347 -119.8633 289° West 132 152 11,500 420 Climbing Seattle Center
04:55PM 46.4467 -119.9142 289° West 133 153 11,900 240 Climbing Seattle Center
04:56PM 46.4594 -119.9675 289° West 139 160 12,000  Climbing Seattle Center
04:57PM 46.4722 -120.0194 290° West 137 158 11,900  Descending Seattle Center
04:58PM 46.4861 -120.0722 291° West 139 160 12,100  Climbing Seattle Center
04:59PM 46.4989 -120.1261 289° West 142 163 12,000 -120 Descending Seattle Center
05:00PM 46.5119 -120.1825 289° West 147 169 11,900  Descending Seattle Center
05:01PM 46.5236 -120.2356 288° West 139 160 12,100  Climbing Seattle Center
05:02PM 46.5383 -120.3019 288° West 145 167 12,000 -60 Descending Seattle Center
05:03PM 46.5514 -120.3578 289° West 146 168 12,000  Level Seattle Center
05:04PM 46.5633 -120.4114 288° West 142 163 12,000  Level Seattle Center
05:05PM 46.5753 -120.4658 288° West 141 162 12,100  Climbing Seattle Center
05:06PM 46.5978 -120.5111 306° West 139 160 12,100 -60 Level Seattle Center
05:07PM 46.6236 -120.5561 310° West 145 167 12,000 -60 Descending Seattle Center
05:08PM 46.6472 -120.6022 307° West 144 166 12,000  Level Seattle Center
05:09PM 46.6683 -120.6497 303° West 140 161 12,100  Climbing Seattle Center
05:10PM 46.6897 -120.6967 304° West 139 160 12,100  Level Seattle Center
05:11PM 46.7119 -120.7439 304° West 141 162 12,100 -60 Level Seattle Center
05:12PM 46.7342 -120.7911 304° West 142 163 12,000  Descending Seattle Center
05:13PM 46.7567 -120.8372 305° West 142 163 12,100 120 Climbing Seattle Center
05:14PM 46.7792 -120.8844 305° West 141 162 12,300  Climbing Seattle Center
05:15PM 46.8050 -120.9419 303° West 143 165 12,200 -180 Descending Seattle Center
05:16PM 46.8281 -120.9917 304° West 148 170 12,000 -240 Descending Seattle Center
05:17PM 46.8486 -121.0394 302° West 140 161 11,800 -300 Descending Seattle Center
05:18PM 46.8711 -121.0847 306° West 139 160 11,500 -300 Descending Seattle Center
05:19PM 46.8914 -121.1328 302° West 139 160 11,300 -300 Descending Seattle Center
05:20PM 46.9153 -121.1775 308° West 138 159 11,000 -300 Descending Seattle Center
05:21PM 46.9358 -121.2247 303° West 138 159 10,800 -240 Descending Seattle Center
05:22PM 46.9583 -121.2739 304° West 142 163 10,600 -300 Descending Seattle Center
05:23PM 46.9806 -121.3192 306° West 137 158 10,300 -300 Descending Seattle Center
05:24PM 47.0006 -121.3678 301° West 140 161 10,100 -120 Descending Seattle Center
05:25PM 47.0272 -121.4211 306° West 141 162 10,100  Level Seattle Center
05:26PM 47.0492 -121.4656 306° West 136 157 10,100 -120 Level Seattle Center
05:27PM 47.0575 -121.4875 299° West 134 154 10,000 -120 Descending Seattle Center
05:27PM 47.0692 -121.5106 307° West 131 151 10,000 60 Level Seattle Center
05:28PM 47.0839 -121.5600 294° West 132 152 10,100  Climbing Seattle Center
05:29PM 47.0822 -121.6142 267° West 131 151 10,100 -300 Level Seattle Center
05:30PM 47.0833 -121.6750 272° West 136 157 9,600 -480 Descending Seattle Center
05:31PM 47.0861 -121.7289 274° West 135 155 9,200 -420 Descending Seattle Center
05:32PM 47.0911 -121.7803 278° West 129 148 8,800 -420 Descending Seattle Center
05:33PM 47.0972 -121.8311 280° West 127 146 8,400 -420 Descending Seattle Center
05:34PM 47.0981 -121.8806 271° West 121 139 8,000 -240 Descending Seattle Center
05:35PM 47.0931 -121.9292 261° West 122 140 8,000 -60 Level Seattle Center
05:36PM 47.0897 -121.9783 264° West 122 140 7,900 -360 Descending Seattle Center
05:37PM 47.0872 -122.0286 266° West 122 140 7,300 -660 Descending Seattle Center
05:38PM 47.0847 -122.0792 266° West 122 140 6,600 -600 Descending Seattle Center
05:39PM 47.0814 -122.1264 264° West 122 140 6,100 -600 Descending Seattle Center
05:40PM 47.0767 -122.1778 262° West 120 138 5,500 -600 Descending Seattle Center
05:41PM 47.0742 -122.2283 266° West 118 136 4,900 -720 Descending Seattle Center
05:42PM 47.0789 -122.2794 278° West 120 138 4,000 -840 Descending Seattle Center
05:44PM 47.0878 -122.3250 286° West 117 135 3,200 -540 Descending Seattle Center
05:45PM 47.1022 -122.3681 296° West 117 135 3,000 -120 Descending Seattle Center
05:46PM 47.1194 -122.4103 301° West 120 138 3,000  Level Seattle Center
05:47PM 47.1383 -122.4508 304° West 122 140 3,000 -60 Level Seattle Center
05:48PM 47.1619 -122.4867 314° West 122 140 2,900 -360 Descending Seattle Center
05:49PM 47.1886 -122.5211 319° Northwest 120 138 2,300 -600 Descending Seattle Center
05:50PM 47.2139 -122.5500 322° Northwest 116 133 1,700 -600 Descending Seattle Center
05:51PM 47.2286 -122.5833 303° West 101 116 1,200 -660 Descending Seattle Center
05:51PM 47.2333 -122.5842 353° North 94 108 900 -600 Descending Seattle Center
05:52PM 47.2508 -122.5797 10° North 89 102 600 -240 Descending Seattle Center
05:53PM 47.2728 -122.5761 North 88 101 500 -120 Descending Seattle Center